createdAt,value
2022-10-18T00:03:25.081Z,26.8
2022-10-18T00:08:27.039Z,25.5
2022-10-18T00:13:30.242Z,25.8
2022-10-18T00:18:32.214Z,24.3
2022-10-18T00:23:34.135Z,25.6
2022-10-18T00:28:36.363Z,23.7
2022-10-18T00:33:39.813Z,22.2
2022-10-18T00:38:41.691Z,23.4
2022-10-18T00:43:43.731Z,23.2
2022-10-18T00:48:45.929Z,22.7
2022-10-18T00:53:48.411Z,21.4
2022-10-18T00:58:50.499Z,23.2
2022-10-18T01:03:52.556Z,21
2022-10-18T01:08:54.603Z,23.4
2022-10-18T01:13:56.690Z,23.2
2022-10-18T01:18:58.782Z,24.4
2022-10-18T01:24:00.890Z,21.1
2022-10-18T01:29:03.039Z,24.5
2022-10-18T01:34:05.331Z,21
2022-10-18T01:39:07.409Z,21.7
2022-10-18T01:44:09.412Z,22.6
2022-10-18T01:49:11.552Z,21.5
2022-10-18T01:54:13.656Z,20.5
2022-10-18T01:59:15.756Z,20.4
2022-10-18T02:04:17.948Z,22.1
2022-10-18T02:09:20.103Z,19.8
2022-10-18T02:14:22.219Z,20.9
2022-10-18T02:24:27.682Z,22.2
2022-10-18T02:29:29.654Z,22.6
2022-10-18T02:34:31.668Z,22.9
2022-10-18T02:39:33.783Z,21.4
2022-10-18T02:44:35.934Z,22.3
2022-10-18T02:49:38.164Z,23.2
2022-10-18T02:54:40.316Z,24.3
2022-10-18T02:59:42.464Z,23.4
2022-10-18T03:04:44.447Z,23.1
2022-10-18T03:09:46.614Z,23.7
2022-10-18T03:14:48.755Z,21.2
2022-10-18T03:19:50.852Z,23.2
2022-10-18T03:24:52.862Z,22.2
2022-10-18T03:29:55.179Z,21.1
2022-10-18T03:34:57.322Z,21.9
2022-10-18T03:39:59.652Z,25.4
2022-10-18T03:45:01.871Z,22.5
2022-10-18T03:50:03.879Z,35
2022-10-18T03:55:06.015Z,25.6
2022-10-18T04:00:08.391Z,24.1
2022-10-18T04:05:10.510Z,21.1
2022-10-18T04:10:12.482Z,24.6
2022-10-18T04:15:14.731Z,19.5
2022-10-18T04:20:17.226Z,20
2022-10-18T04:25:19.315Z,18.8
2022-10-18T04:30:21.566Z,17.5
2022-10-18T04:35:23.674Z,16.3
2022-10-18T04:40:25.856Z,16.9
2022-10-18T04:45:27.950Z,16.5
2022-10-18T04:50:30.158Z,22.2
2022-10-18T04:55:32.154Z,21.7
2022-10-18T05:00:37.731Z,33.8
2022-10-18T05:06:00.552Z,26.8
2022-10-18T05:10:45.148Z,25.4
2022-10-18T05:15:47.160Z,33.3
2022-10-18T05:20:49.156Z,42.2
2022-10-18T05:25:51.348Z,36.6
2022-10-18T05:30:53.393Z,36.8
2022-10-18T05:35:55.493Z,31.9
2022-10-18T05:40:58.000Z,27.2
2022-10-18T05:46:00.036Z,30.6
2022-10-18T05:51:02.221Z,37.3
2022-10-18T05:56:04.487Z,30.9
2022-10-18T06:01:06.692Z,24.9
2022-10-18T06:06:08.856Z,44.3
2022-10-18T06:11:11.377Z,34.3
2022-10-18T06:16:13.443Z,28.1
2022-10-18T06:21:15.714Z,20.8
2022-10-18T06:26:20.488Z,26.8
2022-10-18T06:31:22.629Z,16.7
2022-10-18T06:36:26.642Z,14.3
2022-10-18T06:41:28.889Z,12.7
2022-10-18T06:46:31.142Z,12.6
2022-10-18T06:51:33.207Z,12.1
2022-10-18T06:56:35.264Z,12.4
2022-10-18T07:01:37.356Z,12.9
2022-10-18T07:06:40.021Z,11.6
2022-10-18T07:11:42.132Z,8.7
2022-10-18T07:16:44.114Z,8.4
2022-10-18T07:21:46.111Z,8
2022-10-18T07:26:48.546Z,8.4
2022-10-18T07:31:51.147Z,11.9
2022-10-18T07:36:53.298Z,9.6
2022-10-18T07:41:55.444Z,9.5
2022-10-18T07:46:57.740Z,8.3
2022-10-18T07:52:00.176Z,7.8
2022-10-18T07:57:02.177Z,9.6
2022-10-18T08:02:04.309Z,7.9
2022-10-18T08:07:06.647Z,7.7
2022-10-18T08:12:08.946Z,8.8
2022-10-18T08:17:11.157Z,9.1
2022-10-18T08:22:13.721Z,7
2022-10-18T08:27:16.468Z,7.1
2022-10-18T08:32:18.430Z,7.2
2022-10-18T08:37:23.727Z,8.6
2022-10-18T08:42:26.033Z,8.7
2022-10-18T08:47:28.030Z,6.6
2022-10-18T08:52:31.143Z,7.6
2022-10-18T08:57:34.368Z,6.6
2022-10-18T09:02:37.365Z,9.3
2022-10-18T09:07:40.121Z,8.4
2022-10-18T09:12:42.875Z,5.8
2022-10-18T09:17:44.946Z,9.8
2022-10-18T09:22:47.114Z,10.2
2022-10-18T09:27:49.404Z,9
2022-10-18T09:32:51.441Z,8.2
2022-10-18T09:37:53.490Z,9.3
2022-10-18T09:42:56.189Z,7.3
2022-10-18T09:47:58.300Z,11
2022-10-18T09:53:00.517Z,9.3
2022-10-18T09:58:02.730Z,6.4
2022-10-18T10:03:04.792Z,8.9
2022-10-18T10:08:07.106Z,10.4
2022-10-18T10:13:09.274Z,8.8
2022-10-18T10:18:11.397Z,8.4
2022-10-18T10:23:13.689Z,7.7
2022-10-18T10:28:15.908Z,6.9
2022-10-18T10:33:17.971Z,7.9
2022-10-18T10:38:20.027Z,6.8
2022-10-18T10:43:39.044Z,6.2
2022-10-18T10:48:22.220Z,7.1
2022-10-18T10:53:26.594Z,7.2
2022-10-18T10:58:28.795Z,8
2022-10-18T11:03:30.821Z,5.9
2022-10-18T11:08:33.726Z,8.2
2022-10-18T11:13:35.997Z,5
2022-10-18T11:18:38.218Z,6.1
2022-10-18T11:23:40.265Z,6
2022-10-18T11:28:42.920Z,7.4
2022-10-18T11:34:07.461Z,7.8
2022-10-18T11:38:51.808Z,6.9
2022-10-18T11:44:02.888Z,6.4
2022-10-18T11:48:56.003Z,6.9
2022-10-18T11:53:57.894Z,5.5
2022-10-18T11:59:00.538Z,8.5
2022-10-18T12:04:02.978Z,6.8
2022-10-18T12:09:05.156Z,7.3
2022-10-18T12:14:07.346Z,6.7
2022-10-18T12:19:09.635Z,7.9
2022-10-18T12:24:11.693Z,5.7
2022-10-18T12:29:13.788Z,6.7
2022-10-18T12:34:15.882Z,6.6
2022-10-18T12:39:24.095Z,7.6
2022-10-18T12:44:22.780Z,7.3
2022-10-18T12:49:24.748Z,5
2022-10-18T12:54:26.843Z,5.7
2022-10-18T12:59:28.919Z,5
2022-10-18T13:04:31.187Z,9
2022-10-18T13:09:33.341Z,6.6
2022-10-18T13:14:35.432Z,8.8
2022-10-18T13:19:42.405Z,6.9
2022-10-18T13:24:44.339Z,6
2022-10-18T13:29:46.309Z,6.8
2022-10-18T13:34:48.382Z,6.3
2022-10-18T13:39:50.616Z,5.3
2022-10-18T13:44:52.817Z,5.5
2022-10-18T13:49:59.285Z,5.5
2022-10-18T13:55:01.831Z,5.6
2022-10-18T14:00:04.010Z,4.1
2022-10-18T14:05:23.306Z,6.3
2022-10-18T14:10:07.612Z,6
2022-10-18T14:15:09.544Z,9.5
2022-10-18T14:20:11.785Z,6.4
2022-10-18T14:25:13.811Z,5.9
2022-10-18T14:30:15.934Z,7.9
2022-10-18T14:35:31.927Z,6.8
2022-10-18T14:40:25.531Z,6.1
2022-10-18T14:45:27.865Z,7
2022-10-18T14:50:30.536Z,7.6
2022-10-18T14:55:33.269Z,7.8
2022-10-18T15:00:35.797Z,6.2
2022-10-18T15:05:37.966Z,9
2022-10-18T15:10:40.480Z,6.8
2022-10-18T15:15:42.795Z,8.5
2022-10-18T15:20:45.118Z,8
2022-10-18T15:25:47.335Z,7.8
2022-10-18T15:30:49.422Z,9.7
2022-10-18T15:35:52.154Z,6.4
2022-10-18T15:40:54.786Z,6
2022-10-18T15:45:58.647Z,7.9
2022-10-18T15:50:58.523Z,5.3
2022-10-18T15:56:00.849Z,6.8
2022-10-18T16:01:03.597Z,9.5
2022-10-18T16:06:06.163Z,8.1
2022-10-18T16:11:08.285Z,11.4
2022-10-18T16:16:11.117Z,8.7
2022-10-18T16:21:13.645Z,9.6
2022-10-18T16:26:16.900Z,10.3
2022-10-18T16:31:19.196Z,10.5
2022-10-18T16:36:21.595Z,7.5
2022-10-18T16:41:23.589Z,13.7
2022-10-18T16:46:25.563Z,13.8
2022-10-18T16:51:27.788Z,40.4
2022-10-18T16:56:29.919Z,36.3
2022-10-18T17:01:32.109Z,16.9
2022-10-18T17:06:34.518Z,17.2
2022-10-18T17:11:36.710Z,44.1
2022-10-18T17:16:38.821Z,43.9
2022-10-18T17:21:41.423Z,38.1
2022-10-18T17:26:43.676Z,33.7
2022-10-18T17:31:46.128Z,44.2
2022-10-18T17:36:50.506Z,39.7
2022-10-18T17:41:52.850Z,41
2022-10-18T17:46:54.882Z,105.6
2022-10-18T17:51:55.450Z,54.2
2022-10-18T17:56:57.589Z,65
2022-10-18T18:01:59.770Z,69.8
2022-10-18T18:07:02.100Z,61.2
2022-10-18T18:12:04.137Z,56.4
2022-10-18T18:17:06.219Z,48.3
2022-10-18T18:22:08.453Z,43.3
2022-10-18T18:27:14.007Z,49.6
2022-10-18T18:32:16.338Z,47.7
2022-10-18T18:37:20.165Z,50.4
2022-10-18T18:42:22.301Z,48.4
2022-10-18T18:47:24.699Z,47.6
2022-10-18T18:52:27.268Z,44.4
2022-10-18T18:57:30.301Z,45.7
2022-10-18T19:02:33.990Z,57.8
2022-10-18T19:07:36.231Z,57.1
2022-10-18T19:12:38.500Z,52.7
2022-10-18T19:17:40.665Z,56.4
2022-10-18T19:22:43.060Z,56.9
2022-10-18T19:27:45.359Z,52.5
2022-10-18T19:32:47.367Z,63.8
2022-10-18T19:37:49.671Z,52.6
2022-10-18T19:42:51.695Z,50.5
2022-10-18T19:47:53.747Z,53.3
2022-10-18T19:52:56.085Z,51
2022-10-18T19:57:58.197Z,109.1
2022-10-18T20:03:01.008Z,41.9
2022-10-18T20:08:03.492Z,41.1
2022-10-18T20:13:07.100Z,39.1
2022-10-18T20:18:11.533Z,43.8
2022-10-18T20:23:13.693Z,58.8
2022-10-18T20:28:16.232Z,49.4
2022-10-18T20:33:19.884Z,50.3
2022-10-18T20:38:22.227Z,50.1
2022-10-18T20:43:24.513Z,52.8
2022-10-18T20:48:26.574Z,55.3
2022-10-18T20:53:29.089Z,157.3
2022-10-18T20:58:31.696Z,49.6
2022-10-18T21:03:33.873Z,53
2022-10-18T21:08:36.367Z,56.1
2022-10-18T21:13:38.394Z,51.6
2022-10-18T21:18:40.793Z,54.9
2022-10-18T21:23:43.074Z,55.4
2022-10-18T21:28:45.176Z,57.2
2022-10-18T21:33:47.696Z,54.2
2022-10-18T21:38:49.783Z,52.9
2022-10-18T21:43:51.859Z,50.3
2022-10-18T21:48:53.889Z,64.1
2022-10-18T21:53:56.128Z,52.6
2022-10-18T21:58:58.115Z,54.2
2022-10-18T22:04:00.134Z,51.4
2022-10-18T22:09:02.433Z,56
2022-10-18T22:14:04.438Z,59.8
2022-10-18T22:19:06.706Z,49.6
2022-10-18T22:24:09.369Z,53
2022-10-18T22:29:12.736Z,50.1
2022-10-18T22:34:14.752Z,52.6
2022-10-18T22:39:16.769Z,51
2022-10-18T22:44:18.974Z,44.1
2022-10-18T22:49:21.381Z,49
2022-10-18T22:54:23.716Z,49.5
2022-10-18T22:59:25.950Z,32.3
2022-10-18T23:04:28.325Z,37.1
2022-10-18T23:09:30.460Z,38.9
2022-10-18T23:14:33.076Z,48.1
2022-10-18T23:19:35.504Z,36
2022-10-18T23:24:37.810Z,39.3
2022-10-18T23:29:40.321Z,42.9
2022-10-18T23:34:42.890Z,45.1
2022-10-18T23:39:45.070Z,40.5
2022-10-18T23:44:47.319Z,43.6
2022-10-18T23:49:49.475Z,38.9
2022-10-18T23:54:51.599Z,30.6
2022-10-18T23:59:53.550Z,28.7
